Time;durP1;ratioP1;P1;durP2;ratioP2;P2;SDS_P1;SDS_P2;PMS_P1;PMS_P2;Temp;Humidity;BMP_temperature;BMP_pressure;BME280_temperature;BME280_humidity;BME280_pressure;Samples;Min_cycle;Max_cycle;Signal;HPM_P1;HPM_P2
2021/05/27 00:01:16;;;;;;;6.50;2.72;;;;;;;12.79;99.31;100056.84;5030923;28;20104;-72
2021/05/27 00:03:42;;;;;;;5.10;2.90;;;;;;;12.53;100.00;100057.97;5031292;28;20041;-72
2021/05/27 00:06:07;;;;;;;4.47;2.70;;;;;;;12.64;99.88;100063.38;5018478;28;20037;-73
2021/05/27 00:08:33;;;;;;;5.68;2.90;;;;;;;12.65;100.00;100051.44;5028628;28;20033;-72
2021/05/27 00:10:58;;;;;;;7.03;2.72;;;;;;;12.63;99.26;100057.22;5030514;28;20056;-72
2021/05/27 00:13:24;;;;;;;6.47;3.00;;;;;;;12.58;99.91;100052.16;5029976;28;20167;-74
2021/05/27 00:15:49;;;;;;;6.78;3.08;;;;;;;12.44;100.00;100060.25;5028900;28;20482;-75
2021/05/27 00:18:15;;;;;;;3.15;2.83;;;;;;;12.68;100.00;100064.16;5027030;28;20065;-75
2021/05/27 00:20:40;;;;;;;3.22;2.72;;;;;;;12.65;99.51;100051.44;5029844;28;20029;-72
2021/05/27 00:23:06;;;;;;;5.85;2.70;;;;;;;12.60;99.69;100051.81;5039599;28;20174;-75
2021/05/27 00:25:31;;;;;;;3.30;2.75;;;;;;;12.38;100.00;100050.19;5030208;28;20040;-73
2021/05/27 00:27:57;;;;;;;4.88;3.15;;;;;;;12.50;100.00;100053.31;5019269;28;20791;-75
2021/05/27 00:30:23;;;;;;;11.32;3.05;;;;;;;12.29;100.00;100052.50;5018082;28;20478;-75
2021/05/27 00:32:49;;;;;;;5.45;3.00;;;;;;;12.25;100.00;100049.75;5033973;28;20029;-75
2021/05/27 00:35:15;;;;;;;3.33;2.97;;;;;;;12.06;100.00;100049.31;5024156;28;20087;-75
2021/05/27 00:37:41;;;;;;;4.97;2.92;;;;;;;12.42;100.00;100059.88;5038259;28;20478;-74
2021/05/27 00:40:09;;;;;;;3.92;3.05;;;;;;;12.49;100.00;100064.50;5029097;28;20040;-75
2021/05/27 00:42:35;;;;;;;4.40;3.42;;;;;;;12.33;100.00;100061.38;5021369;28;20029;-75
2021/05/27 00:45:04;;;;;;;5.03;2.88;;;;;;;12.36;100.00;100058.69;5032866;28;20025;-75
2021/05/27 00:47:30;;;;;;;7.68;3.47;;;;;;;12.14;100.00;100061.66;5029386;28;20033;-73
2021/05/27 00:49:56;;;;;;;5.38;3.10;;;;;;;12.36;100.00;100057.91;5022686;28;20029;-75
2021/05/27 00:52:22;;;;;;;5.07;3.30;;;;;;;12.38;100.00;100056.38;5019544;28;20036;-74
2021/05/27 00:54:50;;;;;;;7.55;3.13;;;;;;;12.31;100.00;100063.69;5021580;28;20025;-75
2021/05/27 00:57:37;;;;;;;4.20;3.10;;;;;;;12.52;100.00;100056.41;5032713;28;20806;-75
2021/05/27 01:00:14;;;;;;;6.25;3.03;;;;;;;12.63;100.00;100062.63;5003354;28;20026;-73
2021/05/27 01:02:40;;;;;;;7.53;3.30;;;;;;;12.61;100.00;100064.94;5035353;28;20025;-72
2021/05/27 01:05:08;;;;;;;9.18;3.00;;;;;;;12.56;100.00;100065.28;5028374;28;20042;-73
2021/05/27 01:07:33;;;;;;;5.82;3.28;;;;;;;12.44;100.00;100064.88;5022098;28;20064;-73
2021/05/27 01:10:00;;;;;;;5.13;3.42;;;;;;;12.29;100.00;100060.59;5010989;28;20029;-75
2021/05/27 01:12:26;;;;;;;8.30;3.30;;;;;;;12.20;100.00;100060.16;5028840;28;20033;-75
2021/05/27 01:17:37;;;;;;;7.65;3.28;;;;;;;12.35;100.00;100056.38;5034920;28;20564;-74
2021/05/27 01:20:06;;;;;;;5.45;3.53;;;;;;;12.40;100.00;100056.78;5035465;28;20026;-75
2021/05/27 01:22:32;;;;;;;8.73;3.80;;;;;;;12.44;100.00;100057.56;5017378;28;20029;-74
2021/05/27 01:24:58;;;;;;;7.88;3.85;;;;;;;12.36;100.00;100068.72;5022457;28;20033;-75
2021/05/27 01:27:23;;;;;;;7.82;3.95;;;;;;;12.39;100.00;100057.13;5034202;28;20087;-75
2021/05/27 01:29:52;;;;;;;8.77;4.30;;;;;;;12.26;100.00;100054.00;5031283;28;20397;-75
2021/05/27 01:32:19;;;;;;;7.22;4.20;;;;;;;12.34;100.00;100047.50;5036839;28;20040;-74
2021/05/27 01:34:44;;;;;;;6.60;3.80;;;;;;;12.42;100.00;100059.88;5038114;28;20612;-75
2021/05/27 01:37:10;;;;;;;8.30;4.03;;;;;;;12.32;100.00;100051.72;5030335;28;20091;-72
2021/05/27 01:39:36;;;;;;;6.65;4.20;;;;;;;12.32;100.00;100055.19;5030737;28;20029;-72
2021/05/27 01:42:03;;;;;;;8.00;3.88;;;;;;;12.36;100.00;100061.38;5033305;28;20434;-75
2021/05/27 01:44:29;;;;;;;11.32;4.03;;;;;;;12.33;100.00;100062.13;5032979;28;20043;-74
2021/05/27 01:46:56;;;;;;;8.48;4.35;;;;;;;12.41;100.00;100063.69;5042155;28;20032;-75
2021/05/27 01:49:22;;;;;;;6.57;3.75;;;;;;;12.52;100.00;100064.50;5025795;28;20073;-75
2021/05/27 01:51:50;;;;;;;8.23;4.13;;;;;;;12.38;100.00;100061.78;5044083;28;20040;-75
2021/05/27 01:54:17;;;;;;;6.65;4.38;;;;;;;12.15;100.00;100064.00;5016908;28;20060;-74
2021/05/27 01:56:44;;;;;;;10.75;4.25;;;;;;;12.19;100.00;100055.91;5014678;28;20497;-74
2021/05/27 01:59:11;;;;;;;7.97;4.53;;;;;;;12.35;100.00;100067.16;5014270;28;20040;-74
2021/05/27 02:01:41;;;;;;;9.15;4.07;;;;;;;12.28;100.00;100061.72;5022783;28;20104;-74
2021/05/27 02:04:07;;;;;;;8.98;4.28;;;;;;;12.18;100.00;100068.63;5033133;28;20443;-74
2021/05/27 02:06:32;;;;;;;8.85;4.50;;;;;;;12.31;100.00;100063.69;5027352;28;20032;-75
2021/05/27 02:09:11;;;;;;;10.48;4.07;;;;;;;12.33;100.00;100069.47;5030912;28;20033;-75
2021/05/27 02:11:47;;;;;;;7.03;4.03;;;;;;;12.39;100.00;100066.00;5013613;28;20033;-74
2021/05/27 02:14:16;;;;;;;8.13;4.03;;;;;;;12.21;100.00;100070.59;5009500;28;20672;-75
2021/05/27 02:16:43;;;;;;;7.15;4.53;;;;;;;12.24;100.00;100059.03;5032312;28;20040;-75
2021/05/27 02:19:10;;;;;;;9.85;4.05;;;;;;;12.13;100.00;100060.91;5031018;28;20516;-75
2021/05/27 02:21:39;;;;;;;7.95;4.57;;;;;;;12.07;100.00;100062.44;5029341;28;20039;-73
2021/05/27 02:24:08;;;;;;;9.45;4.00;;;;;;;12.02;100.00;100062.00;5027764;28;20439;-73
2021/05/27 02:26:36;;;;;;;8.20;4.90;;;;;;;12.17;100.00;100064.41;5014945;28;20672;-75
2021/05/27 02:29:09;;;;;;;9.15;4.00;;;;;;;12.08;100.00;100065.91;5031868;28;20079;-75
2021/05/27 02:31:38;;;;;;;7.78;4.43;;;;;;;12.28;100.00;100059.03;5029629;28;20037;-75
2021/05/27 02:34:07;;;;;;;6.70;4.50;;;;;;;12.05;100.00;100067.44;5024419;28;20060;-75
2021/05/27 02:36:34;;;;;;;7.28;4.60;;;;;;;11.94;100.00;100066.59;5028375;28;20040;-76
2021/05/27 02:39:00;;;;;;;10.13;4.70;;;;;;;11.98;100.00;100064.69;5031506;28;20405;-75
2021/05/27 02:41:35;;;;;;;8.48;4.60;;;;;;;12.14;100.00;100067.84;5032192;28;20041;-76
2021/05/27 02:44:02;;;;;;;7.25;3.92;;;;;;;12.01;100.00;100069.34;5029934;28;20033;-76
2021/05/27 02:46:29;;;;;;;9.80;3.85;;;;;;;12.07;100.00;100070.53;5030959;28;20120;-76
2021/05/27 02:48:57;;;;;;;8.27;3.38;;;;;;;12.09;100.00;100062.81;5031083;28;20489;-76
2021/05/27 02:51:22;;;;;;;8.38;3.40;;;;;;;12.19;100.00;100074.81;5025868;28;20108;-76
2021/05/27 02:53:48;;;;;;;6.78;3.58;;;;;;;11.99;100.00;100077.03;5030810;28;20112;-76
2021/05/27 02:56:17;;;;;;;5.35;3.70;;;;;;;11.93;100.00;100083.94;5014280;28;20034;-74
2021/05/27 02:58:43;;;;;;;6.93;3.10;;;;;;;11.96;100.00;100056.22;5029376;28;20044;-75
2021/05/27 03:01:10;;;;;;;6.80;2.47;;;;;;;11.97;100.00;100059.66;5022547;28;20462;-75
2021/05/27 03:03:54;;;;;;;7.28;2.53;;;;;;;12.07;100.00;100070.53;5032005;28;20112;-76
2021/05/27 03:06:20;;;;;;;9.70;2.42;;;;;;;12.03;100.00;100071.66;5030419;28;20189;-76
2021/05/27 03:08:49;;;;;;;5.15;2.70;;;;;;;12.02;100.00;100078.97;5004099;28;20037;-76
2021/05/27 03:11:14;;;;;;;5.10;3.05;;;;;;;11.99;100.00;100070.84;5004934;28;20053;-76
2021/05/27 03:13:41;;;;;;;4.18;3.35;;;;;;;11.96;100.00;100069.69;5023991;28;20025;-72
2021/05/27 03:16:10;;;;;;;9.13;3.70;;;;;;;11.93;100.00;100067.75;5026745;28;20484;-76
2021/05/27 03:18:36;;;;;;;8.55;4.38;;;;;;;11.99;100.00;100060.06;5035514;28;20083;-76
2021/05/27 03:21:03;;;;;;;6.25;4.28;;;;;;;11.89;100.00;100061.56;5029631;28;20026;-76
2021/05/27 03:23:32;;;;;;;11.10;4.22;;;;;;;11.62;100.00;100069.09;5010713;28;20030;-75
2021/05/27 03:26:00;;;;;;;11.18;4.40;;;;;;;11.58;100.00;100072.91;5033583;28;20264;-76
2021/05/27 03:28:25;;;;;;;8.10;3.80;;;;;;;11.53;100.00;100070.56;5015144;28;20120;-76
2021/05/27 03:30:56;;;;;;;9.43;3.42;;;;;;;11.84;100.00;100066.53;5025772;28;20493;-76
2021/05/27 03:33:22;;;;;;;5.82;3.53;;;;;;;11.88;100.00;100070.81;5030225;28;20034;-75
2021/05/27 03:35:49;;;;;;;9.25;3.83;;;;;;;11.92;100.00;100062.72;5024951;28;20040;-76
2021/05/27 03:38:15;;;;;;;6.93;3.30;;;;;;;11.81;100.00;100064.59;5030988;28;20131;-76
2021/05/27 03:40:42;;;;;;;4.65;2.65;;;;;;;11.81;100.00;100075.41;5049218;23;20700;-71
2021/05/27 03:43:08;;;;;;;7.20;3.17;;;;;;;11.73;100.00;100077.25;5025136;28;20523;-72
2021/05/27 03:45:36;;;;;;;7.95;2.40;;;;;;;11.77;100.00;100075.34;5038400;28;20067;-72
2021/05/27 03:48:08;;;;;;;8.13;2.67;;;;;;;11.60;100.00;100082.16;5045867;28;20025;-72
2021/05/27 03:50:33;;;;;;;6.80;3.08;;;;;;;11.55;100.00;100087.91;5032841;28;20033;-72
2021/05/27 03:53:03;;;;;;;5.78;2.70;;;;;;;11.53;100.00;100081.34;5025966;28;20408;-71
2021/05/27 03:55:29;;;;;;;4.55;2.10;;;;;;;11.55;100.00;100085.22;5025812;28;20060;-71
2021/05/27 03:57:57;;;;;;;3.22;2.40;;;;;;;11.66;100.00;100079.91;5013610;28;20026;-71
2021/05/27 04:00:46;;;;;;;4.43;2.63;;;;;;;11.28;100.00;100081.16;5018548;28;20113;-71
2021/05/27 04:09:15;;;;;;;5.63;2.30;;;;;;;11.66;100.00;100074.53;5025609;28;19917;-71
2021/05/27 04:11:41;;;;;;;3.53;2.60;;;;;;;11.54;100.00;100072.09;5031108;28;20099;-72
2021/05/27 04:14:07;;;;;;;3.25;2.53;;;;;;;11.35;100.00;100083.13;5026448;28;20063;-72
2021/05/27 04:16:34;;;;;;;3.80;2.50;;;;;;;11.47;100.00;100078.22;5026467;28;20523;-72
2021/05/27 04:19:00;;;;;;;4.68;2.65;;;;;;;11.56;100.00;100072.50;5029623;28;20021;-73
2021/05/27 04:21:25;;;;;;;7.72;2.75;;;;;;;11.67;100.00;100065.28;5030389;28;20555;-73
2021/05/27 04:23:51;;;;;;;8.70;3.20;;;;;;;11.45;100.00;100074.34;5028387;28;20571;-72
2021/05/27 04:26:17;;;;;;;4.95;3.28;;;;;;;11.68;100.00;100066.84;5027656;28;20069;-72
2021/05/27 04:28:45;;;;;;;8.13;3.20;;;;;;;11.63;100.00;100077.97;5026648;28;20083;-72
2021/05/27 04:31:14;;;;;;;5.95;2.80;;;;;;;11.51;100.00;100081.72;5027660;28;20390;-72
2021/05/27 04:33:52;;;;;;;6.32;2.78;;;;;;;11.57;100.00;100079.44;5012054;28;20910;-72
2021/05/27 04:36:18;;;;;;;7.72;2.85;;;;;;;11.67;100.00;100081.47;5023865;28;20037;-72
2021/05/27 04:38:45;;;;;;;6.40;2.63;;;;;;;11.72;100.00;100083.81;5018596;28;20398;-72
2021/05/27 04:41:11;;;;;;;6.78;2.30;;;;;;;11.70;100.00;100078.81;5028250;28;20049;-72
2021/05/27 04:43:40;;;;;;;5.25;2.40;;;;;;;11.64;100.00;100082.97;5025457;28;20107;-71
2021/05/27 04:46:06;;;;;;;5.97;2.30;;;;;;;11.40;100.00;100083.56;5027803;28;20034;-72
2021/05/27 04:48:31;;;;;;;6.20;2.42;;;;;;;11.44;100.00;100095.13;5028247;28;20111;-72
2021/05/27 04:50:57;;;;;;;5.15;2.13;;;;;;;11.32;100.00;100087.38;5024472;28;20450;-71
2021/05/27 04:53:24;;;;;;;5.40;2.10;;;;;;;11.06;100.00;100087.50;5034778;28;20052;-72
2021/05/27 04:55:51;;;;;;;3.25;1.90;;;;;;;11.39;100.00;100092.03;5025262;28;20029;-72
2021/05/27 04:58:17;;;;;;;3.42;1.92;;;;;;;11.34;100.00;100103.16;5023688;28;20057;-72
2021/05/27 05:00:43;;;;;;;9.07;2.30;;;;;;;11.59;100.00;100096.03;5019652;28;20053;-71
2021/05/27 05:03:09;;;;;;;2.60;2.00;;;;;;;11.72;100.00;100102.69;5030247;28;20121;-71
2021/05/27 05:05:36;;;;;;;3.78;2.03;;;;;;;11.69;100.00;100104.22;5028438;28;20108;-71
2021/05/27 05:08:03;;;;;;;2.20;1.90;;;;;;;11.74;100.00;100093.09;5020531;28;20037;-72
2021/05/27 05:10:29;;;;;;;4.78;2.40;;;;;;;11.80;100.00;100112.38;5017850;28;20025;-72
2021/05/27 05:12:55;;;;;;;5.45;2.08;;;;;;;11.84;100.00;100115.88;5016329;28;20049;-72
2021/05/27 05:15:28;;;;;;;5.57;2.20;;;;;;;11.76;100.00;100108.88;5017329;28;20025;-72
2021/05/27 05:17:58;;;;;;;4.03;2.25;;;;;;;11.74;100.00;100113.88;5000215;28;20124;-71
2021/05/27 05:20:31;;;;;;;8.43;2.22;;;;;;;11.60;100.00;100117.22;5033350;28;20037;-71
2021/05/27 05:22:57;;;;;;;5.07;2.38;;;;;;;11.78;100.00;100125.47;5037374;28;20054;-72
2021/05/27 05:25:24;;;;;;;5.15;2.45;;;;;;;11.72;100.00;100114.25;5040255;28;20025;-72
2021/05/27 05:27:50;;;;;;;4.07;2.28;;;;;;;11.68;100.00;100126.94;5031553;28;20037;-72
2021/05/27 05:30:16;;;;;;;5.93;2.78;;;;;;;11.84;100.00;100125.91;5030585;28;20057;-72
2021/05/27 05:32:42;;;;;;;9.05;3.20;;;;;;;11.78;100.00;100122.78;5029078;28;20026;-72
2021/05/27 05:35:10;;;;;;;9.05;2.90;;;;;;;11.98;100.00;100128.69;5024246;28;20598;-72
2021/05/27 05:37:36;;;;;;;5.93;2.58;;;;;;;11.92;100.00;100135.59;5020286;28;20038;-73
2021/05/27 05:40:03;;;;;;;8.23;2.90;;;;;;;11.94;100.00;100127.88;5018719;28;20024;-73
2021/05/27 05:42:29;;;;;;;4.65;2.53;;;;;;;11.99;100.00;100132.91;5037306;28;20033;-73
2021/05/27 05:44:54;;;;;;;8.68;3.15;;;;;;;12.07;100.00;100127.19;5027129;28;20042;-73
2021/05/27 05:47:20;;;;;;;4.05;2.72;;;;;;;12.01;100.00;100134.09;5019814;28;20041;-73
2021/05/27 05:49:45;;;;;;;4.40;2.85;;;;;;;11.97;100.00;100144.09;5030735;28;20120;-73
2021/05/27 05:52:12;;;;;;;7.53;2.97;;;;;;;12.05;100.00;100128.72;5032809;28;20033;-74
2021/05/27 05:54:38;;;;;;;8.40;2.80;;;;;;;12.10;100.00;100136.47;5029213;28;20060;-73
2021/05/27 05:57:03;;;;;;;9.73;2.80;;;;;;;11.95;100.00;100141.00;5032589;28;20060;-73
2021/05/27 05:59:29;;;;;;;4.80;3.00;;;;;;;12.05;100.00;100142.22;5031524;28;20128;-73
2021/05/27 06:01:55;;;;;;;4.65;3.17;;;;;;;12.09;100.00;100148.41;5031898;28;20029;-72
2021/05/27 06:04:42;;;;;;;5.28;2.97;;;;;;;12.07;100.00;100143.41;5031014;28;20065;-72
2021/05/27 06:07:20;;;;;;;5.35;3.05;;;;;;;12.05;100.00;100144.91;4998988;28;20046;-73
2021/05/27 06:09:45;;;;;;;4.68;2.88;;;;;;;11.91;100.00;100144.81;5000729;28;20056;-73
2021/05/27 06:12:11;;;;;;;7.03;2.92;;;;;;;12.10;100.00;100147.28;4977440;28;20133;-73
2021/05/27 06:14:36;;;;;;;7.05;3.20;;;;;;;12.16;100.00;100146.53;4997713;28;20042;-73
2021/05/27 06:17:02;;;;;;;4.78;3.03;;;;;;;12.17;100.00;100145.38;5001552;28;20060;-73
2021/05/27 06:19:27;;;;;;;7.60;2.80;;;;;;;12.21;100.00;100148.88;5002025;28;20052;-73
2021/05/27 06:22:13;;;;;;;7.65;2.80;;;;;;;12.25;100.00;100148.91;5001385;28;20092;-74
2021/05/27 06:24:49;;;;;;;7.45;2.65;;;;;;;12.21;100.00;100164.28;5001647;28;20580;-74
2021/05/27 06:27:15;;;;;;;9.32;2.50;;;;;;;12.19;100.00;100175.47;5009221;28;20042;-73
2021/05/27 06:29:40;;;;;;;5.20;2.40;;;;;;;12.35;100.00;100167.06;4999708;28;20025;-73
2021/05/27 06:32:06;;;;;;;5.53;2.47;;;;;;;12.26;100.00;100178.22;5005133;28;20396;-73
2021/05/27 06:34:32;;;;;;;10.40;2.55;;;;;;;12.29;100.00;100176.69;5010154;28;20037;-73
2021/05/27 06:36:57;;;;;;;5.70;2.55;;;;;;;12.39;100.00;100178.66;4996273;28;20069;-73
2021/05/27 06:39:24;;;;;;;8.18;2.53;;;;;;;12.46;100.00;100176.00;5007590;28;20041;-73
2021/05/27 06:41:49;;;;;;;4.93;2.40;;;;;;;12.45;100.00;100179.84;5006800;28;20045;-74
2021/05/27 06:44:15;;;;;;;4.93;2.42;;;;;;;12.59;100.00;100188.78;5015862;28;20042;-73
2021/05/27 06:46:41;;;;;;;7.00;2.30;;;;;;;12.57;100.00;100188.41;5030184;28;20025;-73
2021/05/27 06:49:07;;;;;;;2.67;2.47;;;;;;;12.60;100.00;100197.69;5031982;28;20060;-73
2021/05/27 06:51:33;;;;;;;5.30;2.70;;;;;;;12.73;100.00;100190.78;5026915;28;20077;-73
2021/05/27 06:53:58;;;;;;;4.07;2.58;;;;;;;12.80;100.00;100211.63;5032198;28;20029;-73
2021/05/27 06:56:26;;;;;;;4.00;2.28;;;;;;;13.05;100.00;100197.09;5032213;28;20048;-73
2021/05/27 06:58:51;;;;;;;3.92;2.15;;;;;;;13.02;100.00;100200.53;5022167;28;20544;-73
2021/05/27 07:01:17;;;;;;;2.47;2.08;;;;;;;12.91;100.00;100194.31;5031471;28;20098;-74
2021/05/27 07:03:42;;;;;;;6.40;2.22;;;;;;;13.10;100.00;100196.72;5032003;28;20156;-73
2021/05/27 07:06:08;;;;;;;3.00;2.20;;;;;;;13.07;100.00;100205.59;5031833;28;20025;-73
2021/05/27 07:08:33;;;;;;;3.30;2.00;;;;;;;13.03;100.00;100201.28;5030243;28;20033;-72
2021/05/27 07:10:59;;;;;;;6.40;2.15;;;;;;;13.10;100.00;100204.84;5024484;28;20049;-73
2021/05/27 07:13:25;;;;;;;4.10;2.30;;;;;;;13.09;100.00;100205.19;5031110;28;20045;-72
2021/05/27 07:15:51;;;;;;;6.63;2.40;;;;;;;13.06;100.00;100208.69;5030191;28;20430;-72
2021/05/27 07:18:16;;;;;;;3.72;2.30;;;;;;;12.99;100.00;100212.09;5031562;28;20463;-72
2021/05/27 07:20:42;;;;;;;4.70;2.08;;;;;;;13.06;100.00;100212.16;5031698;28;20041;-72
2021/05/27 07:23:09;;;;;;;6.80;2.03;;;;;;;13.09;100.00;100207.91;5028047;28;20081;-72
2021/05/27 07:25:36;;;;;;;4.28;2.20;;;;;;;13.02;100.00;100207.88;5032117;28;20043;-72
2021/05/27 07:28:01;;;;;;;4.15;2.20;;;;;;;13.03;100.00;100214.81;5030907;28;20041;-72
2021/05/27 07:30:28;;;;;;;3.85;2.25;;;;;;;12.95;100.00;100221.38;5030610;28;20064;-72
2021/05/27 07:32:55;;;;;;;5.75;2.38;;;;;;;13.03;100.00;100221.03;5023148;28;20029;-72
2021/05/27 07:35:20;;;;;;;2.22;2.00;;;;;;;13.16;100.00;100227.63;5030546;28;20030;-72
2021/05/27 07:37:46;;;;;;;3.30;2.13;;;;;;;13.38;100.00;100223.03;5024336;28;20102;-72
2021/05/27 07:40:12;;;;;;;2.65;2.40;;;;;;;13.10;100.00;100231.09;5021000;28;20025;-72
2021/05/27 07:42:38;;;;;;;5.57;2.38;;;;;;;13.12;100.00;100226.88;5014287;28;20080;-72
2021/05/27 07:45:05;;;;;;;5.50;2.28;;;;;;;13.06;100.00;100224.91;5023800;28;20025;-72
2021/05/27 07:47:32;;;;;;;2.72;2.10;;;;;;;13.05;100.00;100231.44;5018253;28;20197;-72
2021/05/27 07:50:00;;;;;;;3.03;2.05;;;;;;;13.09;100.00;100238.44;5027420;28;20034;-72
2021/05/27 07:52:26;;;;;;;3.13;2.30;;;;;;;13.16;100.00;100249.25;5028685;28;20096;-72
2021/05/27 07:54:53;;;;;;;3.15;2.30;;;;;;;13.18;100.00;100238.06;5033406;28;20519;-72
2021/05/27 07:57:19;;;;;;;6.88;2.85;;;;;;;13.20;100.00;100246.59;5030866;28;20120;-72
2021/05/27 07:59:45;;;;;;;5.25;2.60;;;;;;;13.26;100.00;100243.09;5032452;28;20031;-72
2021/05/27 08:02:10;;;;;;;6.45;2.53;;;;;;;13.17;100.00;100250.81;5025567;28;20725;-73
2021/05/27 08:04:36;;;;;;;5.32;2.75;;;;;;;13.28;100.00;100253.53;5026679;28;20044;-72
2021/05/27 08:07:02;;;;;;;3.42;2.83;;;;;;;13.30;100.00;100256.63;5030390;28;20033;-73
2021/05/27 08:09:27;;;;;;;5.88;2.60;;;;;;;13.53;100.00;100257.84;5025224;28;20029;-72
2021/05/27 08:11:53;;;;;;;7.03;2.88;;;;;;;13.37;100.00;100262.84;5028033;28;20041;-72
2021/05/27 08:14:18;;;;;;;9.20;2.60;;;;;;;13.53;100.00;100265.19;5029503;28;20160;-72
2021/05/27 08:16:44;;;;;;;5.18;2.63;;;;;;;13.82;100.00;100261.34;5027755;28;20049;-72
2021/05/27 08:19:09;;;;;;;7.10;2.80;;;;;;;13.91;100.00;100274.53;5026365;28;20037;-72
2021/05/27 08:21:35;;;;;;;9.10;2.55;;;;;;;14.01;100.00;100268.34;5029976;28;20033;-72
2021/05/27 08:24:00;;;;;;;5.53;2.42;;;;;;;14.14;100.00;100270.28;5022285;28;20375;-72
2021/05/27 08:26:26;;;;;;;4.85;2.22;;;;;;;14.16;100.00;100269.88;5025583;28;20044;-72
2021/05/27 08:28:52;;;;;;;3.80;2.60;;;;;;;14.29;100.00;100269.13;5027420;28;20063;-72
2021/05/27 08:31:20;;;;;;;6.18;2.50;;;;;;;14.20;100.00;100276.84;5027973;28;20093;-72
2021/05/27 08:33:47;;;;;;;4.28;2.03;;;;;;;14.28;100.00;100273.00;5025346;28;20041;-73
2021/05/27 08:36:13;;;;;;;4.55;2.40;;;;;;;14.26;100.00;100291.56;5013440;28;20072;-72
2021/05/27 08:38:39;;;;;;;4.38;1.90;;;;;;;14.24;100.00;100283.03;5026940;28;20033;-72
2021/05/27 08:41:04;;;;;;;4.88;2.30;;;;;;;14.10;100.00;100293.88;5029206;28;20025;-73
2021/05/27 08:43:32;;;;;;;9.20;2.75;;;;;;;14.13;100.00;100298.50;5030370;28;20112;-73
2021/05/27 08:46:03;;;;;;;8.25;3.97;;;;;;;14.00;100.00;100294.63;5017105;28;20048;-72
2021/05/27 08:48:28;;;;;;;11.83;4.03;;;;;;;14.31;100.00;100298.53;4999710;28;20033;-73
2021/05/27 08:50:54;;;;;;;7.57;2.85;;;;;;;14.64;98.95;100302.75;4980292;28;20470;-72
2021/05/27 08:53:20;;;;;;;7.03;3.10;;;;;;;14.73;99.85;100303.88;5007663;28;20033;-72
2021/05/27 08:56:07;;;;;;;5.47;3.15;;;;;;;15.14;98.86;100296.00;5016462;28;20036;-72
2021/05/27 08:58:32;;;;;;;10.88;3.65;;;;;;;15.43;96.82;100307.56;5021067;28;20137;-72
2021/05/27 09:00:58;;;;;;;9.68;4.20;;;;;;;15.56;95.41;100311.34;5012908;28;20121;-72
2021/05/27 09:03:38;;;;;;;6.80;3.60;;;;;;;15.60;94.03;100318.28;5014664;28;20061;-72
2021/05/27 09:06:03;;;;;;;6.70;2.30;;;;;;;15.29;95.17;100321.94;5019344;28;20120;-72
2021/05/27 09:08:32;;;;;;;3.58;2.00;;;;;;;15.35;94.91;100323.81;5011562;28;20163;-72
2021/05/27 09:11:09;;;;;;;7.47;1.50;;;;;;;15.12;95.87;100328.97;5013557;28;20038;-72
2021/05/27 09:13:36;;;;;;;3.83;1.45;;;;;;;15.01;96.57;100343.72;5023980;28;20373;-72
2021/05/27 09:16:20;;;;;;;4.13;1.38;;;;;;;14.69;98.71;100345.72;5023764;28;20041;-72
2021/05/27 09:18:45;;;;;;;3.22;1.40;;;;;;;14.73;99.20;100346.50;5026716;28;20041;-72
2021/05/27 09:21:13;;;;;;;5.05;1.85;;;;;;;14.51;100.00;100339.53;5026789;28;20041;-72
2021/05/27 09:23:50;;;;;;;4.43;2.03;;;;;;;14.55;100.00;100359.28;5018708;28;20045;-72
2021/05/27 09:26:17;;;;;;;7.82;2.55;;;;;;;14.69;100.00;100362.00;5020119;28;20045;-72
2021/05/27 09:28:45;;;;;;;7.35;2.17;;;;;;;15.00;100.00;100355.75;5015773;28;20042;-71
2021/05/27 09:31:14;;;;;;;9.30;3.13;;;;;;;15.48;100.00;100359.47;5016018;28;20034;-71
2021/05/27 09:33:45;;;;;;;5.50;2.78;;;;;;;15.86;100.00;100361.22;4993417;28;20041;-72
2021/05/27 09:36:12;;;;;;;4.85;2.10;;;;;;;16.10;99.13;100356.78;5021562;28;20103;-72
2021/05/27 09:38:43;;;;;;;3.40;1.55;;;;;;;16.25;94.80;100360.94;5022715;28;20032;-72
2021/05/27 09:41:20;;;;;;;2.17;1.02;;;;;;;16.32;93.23;100363.59;5019046;28;20069;-73
2021/05/27 09:43:49;;;;;;;1.88;1.27;;;;;;;16.48;91.66;100369.34;5003178;28;20105;-72
2021/05/27 09:46:14;;;;;;;3.67;2.00;;;;;;;16.54;89.74;100372.38;5020263;28;20129;-72
2021/05/27 09:48:40;;;;;;;3.90;1.80;;;;;;;16.24;90.57;100378.41;5023626;28;20116;-72
2021/05/27 09:51:06;;;;;;;4.03;2.28;;;;;;;16.01;91.39;100381.69;5014511;28;20034;-72
2021/05/27 09:53:33;;;;;;;8.95;2.80;;;;;;;15.92;93.79;100386.00;5031230;28;20029;-73
2021/05/27 09:56:01;;;;;;;2.97;1.75;;;;;;;15.97;93.71;100388.28;5024859;28;20041;-72
2021/05/27 09:58:26;;;;;;;3.38;1.60;;;;;;;15.84;93.92;100382.56;5040070;28;20026;-72
2021/05/27 10:00:53;;;;;;;2.47;1.38;;;;;;;15.88;93.73;100391.47;5030019;28;20724;-72
2021/05/27 10:03:25;;;;;;;3.20;1.20;;;;;;;15.58;95.07;100395.88;5039008;28;20029;-72
2021/05/27 10:05:50;;;;;;;2.45;1.20;;;;;;;15.71;94.12;100389.63;5033185;28;20037;-72
2021/05/27 10:08:17;;;;;;;3.08;1.63;;;;;;;15.64;95.20;100391.59;5030529;28;20026;-72
2021/05/27 10:10:43;;;;;;;3.38;1.73;;;;;;;15.90;94.21;100397.28;5030645;28;20029;-72
2021/05/27 10:13:10;;;;;;;3.80;2.10;;;;;;;16.05;95.54;100395.22;5032896;28;20041;-72
2021/05/27 10:15:35;;;;;;;4.97;2.80;;;;;;;16.52;93.05;100399.19;5028954;28;20026;-72
2021/05/27 10:18:05;;;;;;;3.08;1.73;;;;;;;16.67;90.44;100406.06;5031451;28;20493;-72
2021/05/27 10:20:32;;;;;;;4.65;2.55;;;;;;;16.66;93.25;100415.41;5031125;28;20041;-72
2021/05/27 10:22:58;;;;;;;7.07;2.83;;;;;;;16.41;94.79;100414.81;5033121;28;20033;-73
2021/05/27 10:25:26;;;;;;;6.10;2.60;;;;;;;15.91;97.50;100419.78;5020238;28;20038;-73
2021/05/27 10:27:54;;;;;;;6.63;2.80;;;;;;;15.83;98.85;100429.88;5031645;28;20083;-73
2021/05/27 10:30:21;;;;;;;4.65;2.63;;;;;;;15.71;99.48;100421.41;5023308;28;20140;-72
2021/05/27 10:32:51;;;;;;;4.32;2.40;;;;;;;15.47;99.34;100433.91;5030939;28;20124;-73
2021/05/27 10:35:18;;;;;;;3.03;2.47;;;;;;;15.55;98.21;100432.72;5031695;28;20045;-73
2021/05/27 10:37:46;;;;;;;6.72;3.05;;;;;;;15.31;99.09;100433.56;5032001;28;20087;-73
2021/05/27 10:40:12;;;;;;;9.50;4.00;;;;;;;15.16;99.93;100440.94;5029028;28;20501;-73
2021/05/27 10:42:56;;;;;;;5.45;3.47;;;;;;;14.63;100.00;100442.16;5031595;28;20116;-72
2021/05/27 10:45:37;;;;;;;6.60;4.20;;;;;;;14.59;100.00;100444.09;5026481;28;20420;-73
2021/05/27 10:48:11;;;;;;;6.75;3.65;;;;;;;14.61;100.00;100442.53;5026467;28;20030;-73
2021/05/27 10:50:50;;;;;;;4.55;3.33;;;;;;;14.60;100.00;100451.81;5030612;28;20108;-73
2021/05/27 10:53:37;;;;;;;8.07;4.43;;;;;;;14.59;100.00;100449.50;5037245;28;20123;-73
2021/05/27 10:56:12;;;;;;;5.90;4.43;;;;;;;14.65;100.00;100456.09;5018080;28;20545;-73
2021/05/27 11:01:36;;;;;;;5.25;3.63;;;;;;;14.65;100.00;100475.06;5008393;28;20617;-73
2021/05/27 11:04:03;;;;;;;4.00;2.80;;;;;;;14.76;100.00;100470.41;5028850;28;20049;-73
2021/05/27 11:06:39;;;;;;;4.10;2.03;;;;;;;14.70;100.00;100472.75;5042835;28;20028;-73
2021/05/27 11:11:45;;;;;;;2.50;1.42;;;;;;;14.71;100.00;100485.13;5028980;28;20053;-73
2021/05/27 11:14:25;;;;;;;4.07;1.83;;;;;;;14.80;100.00;100479.31;5030709;28;20037;-73
2021/05/27 11:20:08;;;;;;;4.75;2.10;;;;;;;14.89;100.00;100480.50;5030612;28;20174;-73
2021/05/27 11:25:15;;;;;;;2.97;2.35;;;;;;;15.12;100.00;100486.28;5024747;28;20042;-73
2021/05/27 11:27:51;;;;;;;2.88;2.33;;;;;;;15.11;100.00;100489.41;5013721;28;20029;-73
2021/05/27 11:30:27;;;;;;;5.63;2.45;;;;;;;15.16;100.00;100497.91;5012758;28;20467;-73
2021/05/27 11:32:59;;;;;;;4.15;2.70;;;;;;;15.33;100.00;100505.25;5013770;28;20122;-73
2021/05/27 11:35:27;;;;;;;4.72;3.00;;;;;;;15.51;100.00;100499.81;5013583;28;21151;-73
2021/05/27 11:37:53;;;;;;;4.85;2.67;;;;;;;15.67;100.00;100497.47;5016332;28;20029;-73
2021/05/27 11:40:32;;;;;;;2.50;1.90;;;;;;;15.83;100.00;100503.22;5015883;28;20036;-73
2021/05/27 11:42:57;;;;;;;2.83;1.95;;;;;;;15.96;100.00;100498.13;5037204;28;20061;-73